createdAt,value
2018-04-12T00:00:00.934Z,88.57
2018-04-12T02:58:41.355Z,93.27
2018-04-12T03:01:16.821Z,94.31
2018-04-12T03:03:51.906Z,95.12
2018-04-12T03:06:27.300Z,95.52
2018-04-12T03:09:02.275Z,95.88
2018-04-12T03:11:37.174Z,95.97
2018-04-12T03:14:12.173Z,95.93
2018-04-12T03:16:47.257Z,95.63
2018-04-12T03:19:22.198Z,94.86
2018-04-12T03:21:56.623Z,94.79
2018-04-12T03:24:31.667Z,94.78
2018-04-12T03:27:06.545Z,94.76
2018-04-12T03:29:41.606Z,95.02
2018-04-12T03:32:16.613Z,95.40
2018-04-12T03:34:51.533Z,95.22
2018-04-12T03:37:26.241Z,95.31
2018-04-12T03:40:01.219Z,95.21
2018-04-12T03:42:35.916Z,95.21
2018-04-12T03:45:10.820Z,95.40
2018-04-12T03:47:45.625Z,95.60
2018-04-12T03:50:20.393Z,96.11
2018-04-12T03:52:55.285Z,95.79
2018-04-12T03:55:31.639Z,95.09
2018-04-12T03:58:06.294Z,94.88
2018-04-12T04:00:41.361Z,94.29
2018-04-12T04:03:16.489Z,93.65
2018-04-12T04:05:51.412Z,93.52
2018-04-12T04:08:26.490Z,93.62
2018-04-12T04:11:01.622Z,94.09
2018-04-12T04:13:36.865Z,94.73
2018-04-12T04:16:23.434Z,94.72
2018-04-12T04:19:09.701Z,93.97
2018-04-12T04:21:44.769Z,93.18
2018-04-12T04:24:19.532Z,92.65
2018-04-12T04:26:54.461Z,92.91
2018-04-12T04:29:29.448Z,92.93
2018-04-12T04:32:04.447Z,92.38
2018-04-12T04:34:39.667Z,91.98
2018-04-12T04:37:15.423Z,91.62
2018-04-12T04:39:50.340Z,91.37
2018-04-12T04:42:25.846Z,90.64
2018-04-12T04:45:00.609Z,91.71
2018-04-12T04:47:35.468Z,91.30
2018-04-12T04:50:10.606Z,90.58
2018-04-12T04:52:45.784Z,91.03
2018-04-12T04:55:20.485Z,91.18
2018-04-12T04:57:55.005Z,90.84
2018-04-12T05:00:29.909Z,90.58
2018-04-12T05:03:04.853Z,90.48
2018-04-12T05:05:39.740Z,90.43
2018-04-12T05:08:14.713Z,90.92
2018-04-12T05:10:49.625Z,91.02
2018-04-12T05:13:24.632Z,91.54
2018-04-12T05:15:59.622Z,91.51
2018-04-12T05:18:35.001Z,91.68
2018-04-12T05:21:09.681Z,91.97
2018-04-12T05:23:44.893Z,91.67
2018-04-12T05:26:19.509Z,92.29
2018-04-12T05:28:54.633Z,92.42
2018-04-12T05:31:29.670Z,91.96
2018-04-12T05:34:04.342Z,92.44
2018-04-12T05:36:39.645Z,92.90
2018-04-12T05:39:14.714Z,93.60
2018-04-12T05:41:50.041Z,93.72
2018-04-12T05:44:24.721Z,93.21
2018-04-12T05:46:59.707Z,93.05
2018-04-12T05:49:34.810Z,92.97
2018-04-12T05:52:09.048Z,92.75
2018-04-12T05:54:44.077Z,92.48
2018-04-12T05:57:18.982Z,93.22
2018-04-12T05:59:53.468Z,93.34
2018-04-12T06:02:28.459Z,93.41
2018-04-12T06:05:03.440Z,94.13
2018-04-12T06:07:38.833Z,93.87
2018-04-12T06:10:13.405Z,94.02
2018-04-12T06:12:48.484Z,94.32
2018-04-12T06:15:23.142Z,94.26
2018-04-12T06:17:57.941Z,94.37
2018-04-12T06:20:32.366Z,94.47
2018-04-12T06:23:07.689Z,94.60
2018-04-12T06:25:43.081Z,95.12
2018-04-12T06:28:17.941Z,95.46
2018-04-12T06:30:52.941Z,95.54
2018-04-12T06:33:28.013Z,95.34
2018-04-12T06:36:03.074Z,95.00
2018-04-12T06:38:38.288Z,95.17
2018-04-12T06:41:13.038Z,94.93
2018-04-12T06:43:47.966Z,94.99
2018-04-12T06:46:23.009Z,94.74
2018-04-12T06:48:57.985Z,94.61
2018-04-12T06:51:32.485Z,94.60
2018-04-12T06:54:07.338Z,94.56
2018-04-12T06:56:42.417Z,94.39
2018-04-12T06:59:17.407Z,94.51
2018-04-12T07:01:52.421Z,94.45
2018-04-12T07:04:27.402Z,94.44
2018-04-12T07:07:02.253Z,94.58
2018-04-12T07:09:37.153Z,94.66
2018-04-12T07:12:11.621Z,94.41
2018-04-12T07:14:46.601Z,94.58
2018-04-12T07:17:21.481Z,94.73
2018-04-12T07:19:56.507Z,94.88
2018-04-12T07:22:32.449Z,94.88
2018-04-12T07:25:07.438Z,95.22
2018-04-12T07:27:42.129Z,95.10
2018-04-12T07:30:17.218Z,95.17
2018-04-12T07:32:51.709Z,95.49
2018-04-12T07:35:26.504Z,95.38
2018-04-12T07:38:01.192Z,95.47
2018-04-12T07:40:36.161Z,95.17
2018-04-12T07:43:11.366Z,95.08
2018-04-12T07:45:46.515Z,95.09
2018-04-12T07:48:21.285Z,95.52
2018-04-12T07:50:55.673Z,95.76
2018-04-12T07:53:30.677Z,96.32
2018-04-12T07:56:05.633Z,96.94
2018-04-12T07:58:40.538Z,97.34
2018-04-12T08:01:16.100Z,97.86
2018-04-12T08:03:50.868Z,98.04
2018-04-12T08:06:25.775Z,98.13
2018-04-12T08:09:00.774Z,96.86
2018-04-12T08:11:35.572Z,96.89
2018-04-12T08:14:10.386Z,97.09
2018-04-12T08:16:45.285Z,97.42
2018-04-12T08:19:20.240Z,97.23
2018-04-12T08:21:54.991Z,97.36
2018-04-12T08:24:29.596Z,97.25
2018-04-12T08:27:04.162Z,96.86
2018-04-12T08:29:39.533Z,96.31
2018-04-12T08:32:14.337Z,95.87
2018-04-12T08:34:49.244Z,95.36
2018-04-12T08:37:24.381Z,95.14
2018-04-12T08:39:59.278Z,95.35
2018-04-12T08:42:34.452Z,95.78
2018-04-12T08:45:08.838Z,95.46
2018-04-12T08:47:43.873Z,95.93
2018-04-12T08:50:19.254Z,96.05
2018-04-12T08:52:54.297Z,95.55
2018-04-12T08:55:29.345Z,95.49
2018-04-12T08:58:04.323Z,95.39
2018-04-12T09:00:39.445Z,95.29
2018-04-12T09:03:14.329Z,95.01
2018-04-12T09:05:48.910Z,94.62
2018-04-12T09:08:23.786Z,94.34
2018-04-12T09:10:58.693Z,94.48
2018-04-12T09:13:33.884Z,94.45
2018-04-12T09:16:08.678Z,94.51
2018-04-12T09:18:43.474Z,94.59
2018-04-12T09:21:18.498Z,94.52
2018-04-12T09:23:53.509Z,94.40
2018-04-12T09:26:28.469Z,94.31
2018-04-12T09:29:03.336Z,94.11
2018-04-12T09:31:37.945Z,94.22
2018-04-12T09:34:12.719Z,94.29
2018-04-12T09:36:47.720Z,93.84
2018-04-12T09:39:23.551Z,93.53
2018-04-12T09:41:57.925Z,93.44
2018-04-12T09:44:32.973Z,93.18
2018-04-12T09:47:07.774Z,92.65
2018-04-12T09:49:42.682Z,92.14
2018-04-12T09:52:17.469Z,91.73
2018-04-12T09:54:52.118Z,91.65
2018-04-12T09:57:27.683Z,91.42
2018-04-12T10:00:02.532Z,91.18
2018-04-12T10:02:42.973Z,91.12
2018-04-12T10:05:30.338Z,90.97
2018-04-12T10:08:10.650Z,90.13
2018-04-12T10:10:45.742Z,90.10
2018-04-12T10:13:20.853Z,90.24
2018-04-12T10:15:55.865Z,90.42
2018-04-12T10:18:31.151Z,90.32
2018-04-12T10:21:06.097Z,89.77
2018-04-12T10:23:40.817Z,89.98
2018-04-12T10:26:15.937Z,89.87
2018-04-12T10:28:51.531Z,90.16
2018-04-12T10:31:25.790Z,90.19
2018-04-12T10:34:00.977Z,90.56
2018-04-12T10:36:36.162Z,90.73
2018-04-12T10:39:10.785Z,90.77
2018-04-12T10:41:45.723Z,91.12
2018-04-12T10:44:21.331Z,91.85
2018-04-12T10:46:55.986Z,91.85
2018-04-12T10:49:30.621Z,91.76
2018-04-12T10:52:05.282Z,91.39
2018-04-12T10:54:40.760Z,91.19
2018-04-12T10:57:14.922Z,91.06
2018-04-12T10:59:49.530Z,90.58
2018-04-12T11:02:24.718Z,90.36
2018-04-12T11:04:59.724Z,90.86
2018-04-12T11:07:35.209Z,91.17
2018-04-12T11:10:09.598Z,91.12
2018-04-12T11:12:44.889Z,90.68
2018-04-12T11:15:19.646Z,90.26
2018-04-12T11:17:54.782Z,90.63
2018-04-12T11:20:30.281Z,90.49
2018-04-12T11:23:05.433Z,90.42
2018-04-12T11:25:40.738Z,90.20
2018-04-12T11:28:15.849Z,89.63
2018-04-12T11:30:51.110Z,89.75
2018-04-12T11:33:26.184Z,89.94
2018-04-12T11:36:01.182Z,90.21
2018-04-12T11:38:36.201Z,89.63
2018-04-12T11:41:11.301Z,89.21
2018-04-12T11:43:46.285Z,88.82
2018-04-12T11:46:21.276Z,88.57
2018-04-12T11:48:55.748Z,88.56
2018-04-12T11:51:30.988Z,88.41
2018-04-12T11:54:05.979Z,88.78
2018-04-12T11:56:40.470Z,89.04
2018-04-12T11:59:15.957Z,89.17
2018-04-12T12:01:50.946Z,88.37
2018-04-12T12:04:25.922Z,88.53
2018-04-12T12:07:00.932Z,88.45
2018-04-12T12:09:36.985Z,88.05
2018-04-12T12:12:11.300Z,88.15
2018-04-12T12:14:46.261Z,87.38
2018-04-12T12:17:21.265Z,87.21
2018-04-12T12:19:56.050Z,86.79
2018-04-12T12:22:31.002Z,86.20
2018-04-12T12:25:05.965Z,86.02
2018-04-12T12:27:41.303Z,85.54
2018-04-12T12:30:15.981Z,86.18
2018-04-12T12:32:50.659Z,86.35
2018-04-12T12:35:26.081Z,86.00
2018-04-12T12:38:01.000Z,85.06
2018-04-12T12:40:35.974Z,85.12
2018-04-12T12:43:11.029Z,84.89
2018-04-12T12:45:46.316Z,84.84
2018-04-12T12:48:21.157Z,84.32
2018-04-12T12:50:56.268Z,84.46
2018-04-12T12:53:31.366Z,83.97
2018-04-12T12:56:06.292Z,83.77
2018-04-12T12:58:41.333Z,83.90
2018-04-12T13:01:16.046Z,82.95
2018-04-12T13:03:51.409Z,83.07
2018-04-12T13:06:26.542Z,82.66
2018-04-12T13:09:01.493Z,82.11
2018-04-12T13:11:36.469Z,81.04
2018-04-12T13:14:11.464Z,80.11
2018-04-12T13:16:46.412Z,80.23
2018-04-12T13:19:21.341Z,79.77
2018-04-12T13:21:56.121Z,79.50
2018-04-12T13:24:31.094Z,79.72
2018-04-12T13:27:06.006Z,80.15
2018-04-12T13:29:41.077Z,79.53
2018-04-12T13:32:15.430Z,78.95
2018-04-12T13:34:50.381Z,79.50
2018-04-12T13:37:25.234Z,78.93
2018-04-12T13:40:00.329Z,77.69
2018-04-12T13:42:35.277Z,75.88
2018-04-12T13:45:10.557Z,75.54
2018-04-12T13:47:45.506Z,75.50
2018-04-12T13:50:20.433Z,75.79
2018-04-12T13:52:55.355Z,75.80
2018-04-12T13:55:30.646Z,75.64
2018-04-12T13:58:05.585Z,75.77
2018-04-12T14:00:40.530Z,74.65
2018-04-12T14:03:15.434Z,75.56
2018-04-12T14:05:50.413Z,75.31
2018-04-12T14:08:25.584Z,74.54
2018-04-12T14:11:00.566Z,74.17
2018-04-12T14:13:35.177Z,74.59
2018-04-12T14:16:10.281Z,74.87
2018-04-12T14:18:45.533Z,74.60
2018-04-12T14:21:20.838Z,74.28
2018-04-12T14:23:55.726Z,73.67
2018-04-12T14:26:30.683Z,73.21
2018-04-12T14:29:05.072Z,72.86
2018-04-12T14:31:40.481Z,72.60
2018-04-12T14:34:15.309Z,72.98
2018-04-12T14:36:50.577Z,73.89
2018-04-12T14:39:25.366Z,73.82
2018-04-12T14:42:00.053Z,73.99
2018-04-12T14:44:34.842Z,72.00
2018-04-12T14:47:09.467Z,72.03
2018-04-12T14:49:44.742Z,72.14
2018-04-12T14:52:19.566Z,72.21
2018-04-12T14:54:54.388Z,72.90
2018-04-12T14:57:29.589Z,71.44
2018-04-12T15:00:04.022Z,71.89
2018-04-12T15:02:39.746Z,72.23
2018-04-12T15:05:14.266Z,72.15
2018-04-12T15:07:49.650Z,72.91
2018-04-12T15:10:24.433Z,72.22
2018-04-12T15:12:59.422Z,72.43
2018-04-12T15:15:33.997Z,72.55
2018-04-12T15:18:09.502Z,73.09
2018-04-12T15:20:43.905Z,73.13
2018-04-12T15:23:18.905Z,73.27
2018-04-12T15:25:53.889Z,73.79
2018-04-12T15:28:28.973Z,73.97
2018-04-12T15:31:04.025Z,73.58
2018-04-12T15:33:39.105Z,73.48
2018-04-12T15:36:14.573Z,73.29
2018-04-12T15:38:49.124Z,73.69
2018-04-12T15:41:24.104Z,73.52
2018-04-12T15:43:59.006Z,73.62
2018-04-12T15:46:33.925Z,73.67
2018-04-12T15:49:08.945Z,74.12
2018-04-12T15:51:43.929Z,73.98
2018-04-12T15:54:18.947Z,74.08
2018-04-12T15:56:53.633Z,73.74
2018-04-12T15:59:28.473Z,74.08
2018-04-12T16:02:03.590Z,74.00
2018-04-12T16:04:38.772Z,73.93
2018-04-12T16:07:13.667Z,74.21
2018-04-12T16:09:48.804Z,74.56
2018-04-12T16:12:23.703Z,74.33
2018-04-12T16:14:58.657Z,74.28
2018-04-12T16:17:33.985Z,74.04
2018-04-12T16:20:08.562Z,74.06
2018-04-12T16:22:43.582Z,74.22
2018-04-12T16:25:18.595Z,74.15
2018-04-12T16:27:53.967Z,74.29
2018-04-12T16:30:28.637Z,74.51
2018-04-12T16:33:03.697Z,74.47
2018-04-12T16:35:39.198Z,74.38
2018-04-12T16:38:13.714Z,74.39
2018-04-12T16:40:48.904Z,74.25
2018-04-12T16:43:23.702Z,74.25
2018-04-12T16:45:58.498Z,74.14
2018-04-12T16:48:34.110Z,74.12
2018-04-12T16:51:09.095Z,73.99
2018-04-12T16:53:44.059Z,73.78
2018-04-12T16:56:18.721Z,73.60
2018-04-12T16:58:53.799Z,73.63
2018-04-12T17:01:28.325Z,73.75
2018-04-12T17:04:03.005Z,73.87
2018-04-12T17:06:38.409Z,73.89
2018-04-12T17:09:12.877Z,73.99
2018-04-12T17:11:48.165Z,74.18
2018-04-12T17:14:22.844Z,74.20
2018-04-12T17:16:57.701Z,74.33
2018-04-12T17:19:34.084Z,74.36
2018-04-12T17:22:08.681Z,74.34
2018-04-12T17:24:44.232Z,74.36
2018-04-12T17:27:19.033Z,74.46
2018-04-12T17:29:54.210Z,74.60
2018-04-12T17:32:29.005Z,74.65
2018-04-12T17:35:03.925Z,74.70
2018-04-12T17:37:38.189Z,74.66
2018-04-12T17:40:13.389Z,74.58
2018-04-12T17:42:48.561Z,74.46
2018-04-12T17:45:23.968Z,74.41
2018-04-12T17:47:59.203Z,74.49
2018-04-12T17:50:34.490Z,74.54
2018-04-12T17:53:10.105Z,74.46
2018-04-12T17:55:45.293Z,74.55
2018-04-12T17:58:20.041Z,74.45
2018-04-12T18:00:55.034Z,74.39
2018-04-12T18:03:30.045Z,74.42
2018-04-12T18:06:04.574Z,74.47
2018-04-12T18:08:39.666Z,74.55
2018-04-12T18:11:14.289Z,74.54
2018-04-12T18:13:50.132Z,74.62
2018-04-12T18:16:25.219Z,74.55
2018-04-12T18:19:00.094Z,74.62
2018-04-12T18:21:35.430Z,74.67
2018-04-12T18:24:11.179Z,74.71
2018-04-12T18:26:46.377Z,74.61
2018-04-12T18:29:21.270Z,74.56
2018-04-12T18:31:56.221Z,74.66
2018-04-12T18:34:31.394Z,74.76
2018-04-12T18:37:06.325Z,74.97
2018-04-12T18:39:41.381Z,75.04
2018-04-12T18:42:16.314Z,75.24
2018-04-12T18:44:51.236Z,75.32
2018-04-12T18:47:26.452Z,75.20
2018-04-12T18:50:01.454Z,75.18
2018-04-12T18:52:36.552Z,75.16
2018-04-12T18:55:12.167Z,75.26
2018-04-12T18:57:47.421Z,75.38
2018-04-12T19:00:22.781Z,75.59
2018-04-12T19:02:57.689Z,75.73
2018-04-12T19:05:32.692Z,75.85
2018-04-12T19:08:07.597Z,75.94
2018-04-12T19:10:42.510Z,76.00
2018-04-12T19:13:17.390Z,76.07
2018-04-12T19:15:52.300Z,76.17
2018-04-12T19:18:26.893Z,76.39
2018-04-12T19:21:01.612Z,76.56
2018-04-12T19:23:36.475Z,76.66
2018-04-12T19:26:11.361Z,76.79
2018-04-12T19:28:46.441Z,76.90
2018-04-12T19:31:21.365Z,77.02
2018-04-12T19:33:56.352Z,77.16
2018-04-12T19:36:31.285Z,77.32
2018-04-12T19:39:05.729Z,77.73
2018-04-12T19:41:41.273Z,78.11
2018-04-12T19:44:16.543Z,78.33
2018-04-12T19:46:51.385Z,78.50
2018-04-12T19:49:26.022Z,78.53
2018-04-12T19:52:01.374Z,78.73
2018-04-12T19:54:36.908Z,78.90
2018-04-12T19:57:11.729Z,78.93
2018-04-12T19:59:46.783Z,78.83
2018-04-12T20:02:21.689Z,78.81
2018-04-12T20:04:56.353Z,78.70
2018-04-12T20:07:31.470Z,78.69
2018-04-12T20:10:05.153Z,78.70
2018-04-12T20:12:40.676Z,78.79
2018-04-12T20:15:15.472Z,78.91
2018-04-12T20:17:50.650Z,78.95
2018-04-12T20:20:26.393Z,78.97
2018-04-12T20:23:00.900Z,79.04
2018-04-12T20:25:36.058Z,79.10
2018-04-12T20:28:10.732Z,79.12
2018-04-12T20:30:46.358Z,79.12
2018-04-12T20:33:20.593Z,79.15
2018-04-12T20:35:55.369Z,79.14
2018-04-12T20:38:30.510Z,79.17
2018-04-12T20:41:05.420Z,79.25
2018-04-12T20:43:39.912Z,79.30
2018-04-12T20:46:14.929Z,79.49
2018-04-12T20:48:50.041Z,79.50
2018-04-12T20:51:25.558Z,79.53
2018-04-12T20:54:00.540Z,79.99
2018-04-12T20:56:35.627Z,80.49
2018-04-12T20:59:10.546Z,80.58
2018-04-12T21:01:45.449Z,80.62
2018-04-12T21:04:20.046Z,80.61
2018-04-12T21:06:55.325Z,80.75
2018-04-12T21:09:30.030Z,80.82
2018-04-12T21:12:04.693Z,80.94
2018-04-12T21:14:39.858Z,81.11
2018-04-12T21:17:14.568Z,81.23
2018-04-12T21:19:49.644Z,81.30
2018-04-12T21:22:24.533Z,81.40
2018-04-12T21:24:59.129Z,81.49
2018-04-12T21:27:34.885Z,81.68
2018-04-12T21:30:09.660Z,81.81
2018-04-12T21:32:44.806Z,81.90
2018-04-12T21:35:19.282Z,82.00
2018-04-12T21:37:54.185Z,82.04
2018-04-12T21:40:28.986Z,81.95
2018-04-12T21:43:03.778Z,81.86
2018-04-12T21:45:38.856Z,81.85
2018-04-12T21:48:14.071Z,81.88
2018-04-12T21:50:49.866Z,81.88
2018-04-12T21:53:25.149Z,82.04
2018-04-12T21:55:59.608Z,82.14
2018-04-12T21:58:35.105Z,82.13
2018-04-12T22:01:09.293Z,82.28
2018-04-12T22:03:44.074Z,82.46
2018-04-12T22:06:18.950Z,82.38
2018-04-12T22:08:54.521Z,82.31
2018-04-12T22:11:29.795Z,82.21
2018-04-12T22:14:04.765Z,82.09
2018-04-12T22:16:39.533Z,82.04
2018-04-12T22:19:14.609Z,82.05
2018-04-12T22:21:49.202Z,81.81
2018-04-12T22:24:24.189Z,81.71
2018-04-12T22:26:58.955Z,81.83
2018-04-12T22:29:34.989Z,81.92
2018-04-12T22:32:09.891Z,82.00
2018-04-12T22:34:44.789Z,82.08
2018-04-12T22:37:20.197Z,82.17
2018-04-12T22:39:54.900Z,82.36
2018-04-12T22:42:29.726Z,82.26
2018-04-12T22:45:04.402Z,81.92
2018-04-12T22:47:39.291Z,81.78
2018-04-12T22:50:14.193Z,81.71
2018-04-12T22:52:49.454Z,81.39
2018-04-12T22:55:24.265Z,81.32
2018-04-12T22:57:59.050Z,81.41
2018-04-12T23:00:34.900Z,81.59
2018-04-12T23:03:09.777Z,81.48
2018-04-12T23:05:45.988Z,81.29
2018-04-12T23:08:21.281Z,81.45
2018-04-12T23:10:56.183Z,81.69
2018-04-12T23:13:31.174Z,81.93
2018-04-12T23:16:06.152Z,81.98
2018-04-12T23:18:41.310Z,82.02
2018-04-12T23:21:16.062Z,82.19
2018-04-12T23:23:51.133Z,82.25
2018-04-12T23:26:26.191Z,82.33
2018-04-12T23:29:01.184Z,82.57
2018-04-12T23:31:36.381Z,82.80
2018-04-12T23:34:11.106Z,82.89
2018-04-12T23:36:46.313Z,83.52
2018-04-12T23:39:21.120Z,83.82
2018-04-12T23:41:56.078Z,84.11
2018-04-12T23:44:31.485Z,84.48
2018-04-12T23:47:06.206Z,84.58
2018-04-12T23:49:41.209Z,84.72
2018-04-12T23:52:15.714Z,84.69
2018-04-12T23:54:50.309Z,84.41
2018-04-12T23:57:25.524Z,84.24
